sensor_id;sensor_type;location;lat;lon;timestamp;temperature;humidity
66213;SHT31;53015;50.046;8.238;2023-12-04T00:00:02;-0.30;83.12
66213;SHT31;53015;50.046;8.238;2023-12-04T00:02:27;-0.26;83.13
66213;SHT31;53015;50.046;8.238;2023-12-04T00:04:52;-0.21;82.92
66213;SHT31;53015;50.046;8.238;2023-12-04T00:07:18;-0.23;82.87
66213;SHT31;53015;50.046;8.238;2023-12-04T00:09:44;-0.40;82.91
66213;SHT31;53015;50.046;8.238;2023-12-04T00:12:10;-0.34;83.23
66213;SHT31;53015;50.046;8.238;2023-12-04T00:14:36;-0.36;83.35
66213;SHT31;53015;50.046;8.238;2023-12-04T00:17:01;-0.29;82.81
66213;SHT31;53015;50.046;8.238;2023-12-04T00:19:27;-0.30;82.82
66213;SHT31;53015;50.046;8.238;2023-12-04T00:21:52;-0.27;82.94
66213;SHT31;53015;50.046;8.238;2023-12-04T00:24:18;-0.41;83.01
66213;SHT31;53015;50.046;8.238;2023-12-04T00:26:43;-0.47;83.61
66213;SHT31;53015;50.046;8.238;2023-12-04T00:29:10;-0.51;83.94
66213;SHT31;53015;50.046;8.238;2023-12-04T00:31:36;-0.57;83.92
66213;SHT31;53015;50.046;8.238;2023-12-04T00:34:01;-0.69;84.66
66213;SHT31;53015;50.046;8.238;2023-12-04T00:36:26;-0.78;84.50
66213;SHT31;53015;50.046;8.238;2023-12-04T00:38:52;-0.75;84.79
66213;SHT31;53015;50.046;8.238;2023-12-04T00:41:17;-0.88;85.14
66213;SHT31;53015;50.046;8.238;2023-12-04T00:43:43;-0.75;85.24
66213;SHT31;53015;50.046;8.238;2023-12-04T00:46:10;-0.82;84.93
66213;SHT31;53015;50.046;8.238;2023-12-04T00:48:35;-0.93;85.53
66213;SHT31;53015;50.046;8.238;2023-12-04T00:51:01;-0.89;85.30
66213;SHT31;53015;50.046;8.238;2023-12-04T00:53:26;-1.02;85.41
66213;SHT31;53015;50.046;8.238;2023-12-04T00:55:52;-0.97;85.35
66213;SHT31;53015;50.046;8.238;2023-12-04T00:58:17;-0.95;85.06
66213;SHT31;53015;50.046;8.238;2023-12-04T01:00:43;-1.03;85.45
66213;SHT31;53015;50.046;8.238;2023-12-04T01:03:09;-1.19;85.17
66213;SHT31;53015;50.046;8.238;2023-12-04T01:05:35;-1.32;85.72
66213;SHT31;53015;50.046;8.238;2023-12-04T01:08:00;-1.36;85.85
66213;SHT31;53015;50.046;8.238;2023-12-04T01:10:26;-1.23;86.32
66213;SHT31;53015;50.046;8.238;2023-12-04T01:12:51;-1.23;85.70
66213;SHT31;53015;50.046;8.238;2023-12-04T01:15:17;-1.17;85.63
66213;SHT31;53015;50.046;8.238;2023-12-04T01:17:42;-1.12;85.35
66213;SHT31;53015;50.046;8.238;2023-12-04T01:20:10;-1.14;85.55
66213;SHT31;53015;50.046;8.238;2023-12-04T01:22:35;-1.06;85.90
66213;SHT31;53015;50.046;8.238;2023-12-04T01:25:01;-1.02;85.63
66213;SHT31;53015;50.046;8.238;2023-12-04T01:27:26;-1.19;85.41
66213;SHT31;53015;50.046;8.238;2023-12-04T01:29:52;-1.16;85.51
66213;SHT31;53015;50.046;8.238;2023-12-04T01:32:17;-1.12;85.92
66213;SHT31;53015;50.046;8.238;2023-12-04T01:34:43;-1.12;85.75
66213;SHT31;53015;50.046;8.238;2023-12-04T01:37:10;-1.09;85.78
66213;SHT31;53015;50.046;8.238;2023-12-04T01:39:35;-1.12;85.49
66213;SHT31;53015;50.046;8.238;2023-12-04T01:42:01;-1.12;85.65
66213;SHT31;53015;50.046;8.238;2023-12-04T01:44:26;-1.19;85.58
66213;SHT31;53015;50.046;8.238;2023-12-04T01:46:52;-1.12;86.00
66213;SHT31;53015;50.046;8.238;2023-12-04T01:49:17;-1.16;85.76
66213;SHT31;53015;50.046;8.238;2023-12-04T01:51:45;-1.17;85.79
66213;SHT31;53015;50.046;8.238;2023-12-04T01:54:13;-1.30;86.16
66213;SHT31;53015;50.046;8.238;2023-12-04T01:56:38;-1.43;86.00
66213;SHT31;53015;50.046;8.238;2023-12-04T01:59:04;-1.30;86.45
66213;SHT31;53015;50.046;8.238;2023-12-04T02:01:30;-1.27;86.23
66213;SHT31;53015;50.046;8.238;2023-12-04T02:03:57;-1.26;86.43
66213;SHT31;53015;50.046;8.238;2023-12-04T02:06:22;-1.27;86.13
66213;SHT31;53015;50.046;8.238;2023-12-04T02:08:48;-1.24;86.74
66213;SHT31;53015;50.046;8.238;2023-12-04T02:11:15;-1.30;86.59
66213;SHT31;53015;50.046;8.238;2023-12-04T02:13:41;-1.37;86.85
66213;SHT31;53015;50.046;8.238;2023-12-04T02:16:09;-1.44;87.17
66213;SHT31;53015;50.046;8.238;2023-12-04T02:18:37;-1.39;87.15
66213;SHT31;53015;50.046;8.238;2023-12-04T02:21:03;-1.23;86.78
66213;SHT31;53015;50.046;8.238;2023-12-04T02:23:28;-1.30;86.75
66213;SHT31;53015;50.046;8.238;2023-12-04T02:25:59;-1.24;86.57
66213;SHT31;53015;50.046;8.238;2023-12-04T02:28:28;-1.23;86.25
66213;SHT31;53015;50.046;8.238;2023-12-04T02:30:56;-1.41;86.69
66213;SHT31;53015;50.046;8.238;2023-12-04T02:33:24;-1.39;86.95
66213;SHT31;53015;50.046;8.238;2023-12-04T02:35:51;-1.30;86.68
66213;SHT31;53015;50.046;8.238;2023-12-04T02:38:18;-1.40;86.62
66213;SHT31;53015;50.046;8.238;2023-12-04T02:40:43;-1.40;86.86
66213;SHT31;53015;50.046;8.238;2023-12-04T02:43:10;-1.50;86.84
66213;SHT31;53015;50.046;8.238;2023-12-04T02:45:36;-1.46;87.40
66213;SHT31;53015;50.046;8.238;2023-12-04T02:48:02;-1.51;87.04
66213;SHT31;53015;50.046;8.238;2023-12-04T02:50:27;-1.52;87.18
66213;SHT31;53015;50.046;8.238;2023-12-04T02:52:53;-1.60;87.51
66213;SHT31;53015;50.046;8.238;2023-12-04T02:55:19;-1.52;87.61
66213;SHT31;53015;50.046;8.238;2023-12-04T02:57:46;-1.64;87.32
66213;SHT31;53015;50.046;8.238;2023-12-04T03:00:13;-1.48;87.29
66213;SHT31;53015;50.046;8.238;2023-12-04T03:02:39;-1.60;87.12
66213;SHT31;53015;50.046;8.238;2023-12-04T03:05:04;-1.64;87.38
66213;SHT31;53015;50.046;8.238;2023-12-04T03:07:30;-1.48;87.12
66213;SHT31;53015;50.046;8.238;2023-12-04T03:09:55;-1.48;87.54
66213;SHT31;53015;50.046;8.238;2023-12-04T03:12:21;-1.54;87.44
66213;SHT31;53015;50.046;8.238;2023-12-04T03:14:46;-1.51;87.13
66213;SHT31;53015;50.046;8.238;2023-12-04T03:17:14;-1.50;87.38
66213;SHT31;53015;50.046;8.238;2023-12-04T03:19:39;-1.44;87.54
66213;SHT31;53015;50.046;8.238;2023-12-04T03:22:05;-1.48;87.49
66213;SHT31;53015;50.046;8.238;2023-12-04T03:24:30;-1.54;87.23
66213;SHT31;53015;50.046;8.238;2023-12-04T03:26:56;-1.54;87.60
66213;SHT31;53015;50.046;8.238;2023-12-04T03:29:21;-1.60;87.95
66213;SHT31;53015;50.046;8.238;2023-12-04T03:31:47;-1.64;87.97
66213;SHT31;53015;50.046;8.238;2023-12-04T03:34:14;-1.67;87.81
66213;SHT31;53015;50.046;8.238;2023-12-04T03:36:40;-1.71;87.77
66213;SHT31;53015;50.046;8.238;2023-12-04T03:39:05;-1.67;87.68
66213;SHT31;53015;50.046;8.238;2023-12-04T03:41:30;-1.55;87.34
66213;SHT31;53015;50.046;8.238;2023-12-04T03:43:56;-1.61;87.23
66213;SHT31;53015;50.046;8.238;2023-12-04T03:46:21;-1.65;87.29
66213;SHT31;53015;50.046;8.238;2023-12-04T03:48:47;-1.65;87.38
66213;SHT31;53015;50.046;8.238;2023-12-04T03:51:14;-1.58;86.94
66213;SHT31;53015;50.046;8.238;2023-12-04T03:53:39;-1.50;86.96
66213;SHT31;53015;50.046;8.238;2023-12-04T03:56:05;-1.55;86.48
66213;SHT31;53015;50.046;8.238;2023-12-04T03:58:32;-1.52;86.99
66213;SHT31;53015;50.046;8.238;2023-12-04T04:00:57;-1.55;86.92
66213;SHT31;53015;50.046;8.238;2023-12-04T04:03:23;-1.70;87.03
66213;SHT31;53015;50.046;8.238;2023-12-04T04:05:48;-1.77;87.52
66213;SHT31;53015;50.046;8.238;2023-12-04T04:08:15;-1.75;87.35
66213;SHT31;53015;50.046;8.238;2023-12-04T04:10:40;-1.71;87.46
66213;SHT31;53015;50.046;8.238;2023-12-04T04:13:06;-1.67;86.30
66213;SHT31;53015;50.046;8.238;2023-12-04T04:15:32;-1.67;86.49
66213;SHT31;53015;50.046;8.238;2023-12-04T04:17:57;-1.61;86.77
66213;SHT31;53015;50.046;8.238;2023-12-04T04:20:23;-1.58;86.48
66213;SHT31;53015;50.046;8.238;2023-12-04T04:22:48;-1.67;86.11
66213;SHT31;53015;50.046;8.238;2023-12-04T04:25:15;-1.62;86.03
66213;SHT31;53015;50.046;8.238;2023-12-04T04:27:41;-1.62;86.15
66213;SHT31;53015;50.046;8.238;2023-12-04T04:30:07;-1.61;85.62
66213;SHT31;53015;50.046;8.238;2023-12-04T04:32:32;-1.50;84.87
66213;SHT31;53015;50.046;8.238;2023-12-04T04:34:58;-1.44;84.86
66213;SHT31;53015;50.046;8.238;2023-12-04T04:37:23;-1.41;84.41
66213;SHT31;53015;50.046;8.238;2023-12-04T04:39:49;-1.62;84.56
66213;SHT31;53015;50.046;8.238;2023-12-04T04:42:16;-1.62;84.84
66213;SHT31;53015;50.046;8.238;2023-12-04T04:44:41;-1.51;85.06
66213;SHT31;53015;50.046;8.238;2023-12-04T04:47:07;-1.57;85.11
66213;SHT31;53015;50.046;8.238;2023-12-04T04:49:32;-1.54;84.95
66213;SHT31;53015;50.046;8.238;2023-12-04T04:51:58;-1.50;84.71
66213;SHT31;53015;50.046;8.238;2023-12-04T04:54:23;-1.65;84.28
66213;SHT31;53015;50.046;8.238;2023-12-04T04:56:48;-1.65;84.73
66213;SHT31;53015;50.046;8.238;2023-12-04T04:59:15;-1.46;84.36
66213;SHT31;53015;50.046;8.238;2023-12-04T05:01:41;-1.54;84.46
66213;SHT31;53015;50.046;8.238;2023-12-04T05:04:06;-1.62;84.52
66213;SHT31;53015;50.046;8.238;2023-12-04T05:06:32;-1.54;84.70
66213;SHT31;53015;50.046;8.238;2023-12-04T05:08:57;-1.62;84.50
66213;SHT31;53015;50.046;8.238;2023-12-04T05:11:23;-1.62;84.78
66213;SHT31;53015;50.046;8.238;2023-12-04T05:13:48;-1.67;84.76
66213;SHT31;53015;50.046;8.238;2023-12-04T05:16:15;-1.71;85.21
66213;SHT31;53015;50.046;8.238;2023-12-04T05:18:41;-1.68;85.32
66213;SHT31;53015;50.046;8.238;2023-12-04T05:21:08;-1.71;84.68
66213;SHT31;53015;50.046;8.238;2023-12-04T05:23:33;-1.54;84.91
66213;SHT31;53015;50.046;8.238;2023-12-04T05:25:59;-1.77;84.33
66213;SHT31;53015;50.046;8.238;2023-12-04T05:28:25;-1.67;84.51
66213;SHT31;53015;50.046;8.238;2023-12-04T05:30:50;-1.65;84.10
66213;SHT31;53015;50.046;8.238;2023-12-04T05:33:17;-1.55;84.19
66213;SHT31;53015;50.046;8.238;2023-12-04T05:35:43;-1.57;84.68
66213;SHT31;53015;50.046;8.238;2023-12-04T05:38:08;-1.61;84.38
66213;SHT31;53015;50.046;8.238;2023-12-04T05:40:34;-1.68;84.16
66213;SHT31;53015;50.046;8.238;2023-12-04T05:42:59;-1.58;83.99
66213;SHT31;53015;50.046;8.238;2023-12-04T05:45:25;-1.67;84.01
66213;SHT31;53015;50.046;8.238;2023-12-04T05:47:50;-1.74;84.32
66213;SHT31;53015;50.046;8.238;2023-12-04T05:50:17;-1.85;84.60
66213;SHT31;53015;50.046;8.238;2023-12-04T05:52:43;-1.96;85.04
66213;SHT31;53015;50.046;8.238;2023-12-04T05:55:09;-2.00;85.31
66213;SHT31;53015;50.046;8.238;2023-12-04T05:57:34;-1.88;85.11
66213;SHT31;53015;50.046;8.238;2023-12-04T06:00:00;-1.81;84.64
66213;SHT31;53015;50.046;8.238;2023-12-04T06:02:25;-1.70;84.48
66213;SHT31;53015;50.046;8.238;2023-12-04T06:04:51;-1.54;84.03
66213;SHT31;53015;50.046;8.238;2023-12-04T06:07:18;-1.46;83.80
66213;SHT31;53015;50.046;8.238;2023-12-04T06:09:43;-1.37;84.17
66213;SHT31;53015;50.046;8.238;2023-12-04T06:12:09;-1.41;84.47
66213;SHT31;53015;50.046;8.238;2023-12-04T06:14:34;-1.37;84.53
66213;SHT31;53015;50.046;8.238;2023-12-04T06:17:00;-1.34;83.61
66213;SHT31;53015;50.046;8.238;2023-12-04T06:19:25;-1.27;83.30
66213;SHT31;53015;50.046;8.238;2023-12-04T06:21:51;-1.20;82.72
66213;SHT31;53015;50.046;8.238;2023-12-04T06:24:18;-1.39;82.74
66213;SHT31;53015;50.046;8.238;2023-12-04T06:26:45;-1.36;82.96
66213;SHT31;53015;50.046;8.238;2023-12-04T06:29:13;-1.29;83.00
66213;SHT31;53015;50.046;8.238;2023-12-04T06:31:39;-1.24;83.12
66213;SHT31;53015;50.046;8.238;2023-12-04T06:34:05;-1.26;82.67
66213;SHT31;53015;50.046;8.238;2023-12-04T06:36:32;-1.34;82.43
66213;SHT31;53015;50.046;8.238;2023-12-04T06:39:01;-1.34;82.94
66213;SHT31;53015;50.046;8.238;2023-12-04T06:41:29;-1.37;83.20
66213;SHT31;53015;50.046;8.238;2023-12-04T06:43:55;-1.46;82.91
66213;SHT31;53015;50.046;8.238;2023-12-04T06:46:22;-1.57;83.03
66213;SHT31;53015;50.046;8.238;2023-12-04T06:48:51;-1.52;82.88
66213;SHT31;53015;50.046;8.238;2023-12-04T06:51:18;-1.55;83.12
66213;SHT31;53015;50.046;8.238;2023-12-04T06:53:44;-1.40;83.17
66213;SHT31;53015;50.046;8.238;2023-12-04T06:56:09;-1.30;82.84
66213;SHT31;53015;50.046;8.238;2023-12-04T06:58:36;-1.16;82.87
66213;SHT31;53015;50.046;8.238;2023-12-04T07:01:02;-1.24;82.46
66213;SHT31;53015;50.046;8.238;2023-12-04T07:03:27;-1.30;82.32
66213;SHT31;53015;50.046;8.238;2023-12-04T07:05:53;-1.26;82.21
66213;SHT31;53015;50.046;8.238;2023-12-04T07:08:18;-1.19;82.28
66213;SHT31;53015;50.046;8.238;2023-12-04T07:10:44;-1.23;82.23
66213;SHT31;53015;50.046;8.238;2023-12-04T07:13:09;-1.12;82.41
66213;SHT31;53015;50.046;8.238;2023-12-04T07:15:36;-1.06;82.50
66213;SHT31;53015;50.046;8.238;2023-12-04T07:18:02;-1.02;82.38
66213;SHT31;53015;50.046;8.238;2023-12-04T07:20:27;-0.92;82.05
66213;SHT31;53015;50.046;8.238;2023-12-04T07:22:53;-0.95;81.44
66213;SHT31;53015;50.046;8.238;2023-12-04T07:25:18;-0.91;81.34
66213;SHT31;53015;50.046;8.238;2023-12-04T07:27:43;-0.92;81.19
66213;SHT31;53015;50.046;8.238;2023-12-04T07:30:10;-0.97;80.93
66213;SHT31;53015;50.046;8.238;2023-12-04T07:32:37;-0.89;80.58
66213;SHT31;53015;50.046;8.238;2023-12-04T07:35:03;-0.92;80.65
66213;SHT31;53015;50.046;8.238;2023-12-04T07:37:28;-0.81;80.70
66213;SHT31;53015;50.046;8.238;2023-12-04T07:39:54;-0.75;80.27
66213;SHT31;53015;50.046;8.238;2023-12-04T07:42:19;-0.74;80.12
66213;SHT31;53015;50.046;8.238;2023-12-04T07:44:44;-0.81;80.13
66213;SHT31;53015;50.046;8.238;2023-12-04T07:47:10;-0.74;80.25
66213;SHT31;53015;50.046;8.238;2023-12-04T07:49:37;-0.82;79.82
66213;SHT31;53015;50.046;8.238;2023-12-04T07:52:03;-0.79;79.85
66213;SHT31;53015;50.046;8.238;2023-12-04T07:54:28;-0.75;80.00
66213;SHT31;53015;50.046;8.238;2023-12-04T07:56:54;-0.58;79.69
66213;SHT31;53015;50.046;8.238;2023-12-04T07:59:19;-0.72;80.07
66213;SHT31;53015;50.046;8.238;2023-12-04T08:01:45;-0.54;79.69
66213;SHT31;53015;50.046;8.238;2023-12-04T08:04:10;-0.50;79.10
66213;SHT31;53015;50.046;8.238;2023-12-04T08:06:37;-0.40;79.06
66213;SHT31;53015;50.046;8.238;2023-12-04T08:09:03;-0.31;78.68
66213;SHT31;53015;50.046;8.238;2023-12-04T08:11:28;-0.31;78.23
66213;SHT31;53015;50.046;8.238;2023-12-04T08:13:54;-0.37;77.81
66213;SHT31;53015;50.046;8.238;2023-12-04T08:16:20;-0.40;78.34
66213;SHT31;53015;50.046;8.238;2023-12-04T08:18:46;-0.27;78.03
66213;SHT31;53015;50.046;8.238;2023-12-04T08:21:12;-0.29;78.09
66213;SHT31;53015;50.046;8.238;2023-12-04T08:23:38;-0.38;78.12
66213;SHT31;53015;50.046;8.238;2023-12-04T08:26:04;-0.27;77.89
66213;SHT31;53015;50.046;8.238;2023-12-04T08:28:30;-0.27;77.51
66213;SHT31;53015;50.046;8.238;2023-12-04T08:30:55;-0.36;77.53
66213;SHT31;53015;50.046;8.238;2023-12-04T08:33:20;-0.40;77.87
66213;SHT31;53015;50.046;8.238;2023-12-04T08:35:46;-0.37;77.99
66213;SHT31;53015;50.046;8.238;2023-12-04T08:38:11;-0.40;77.92
66213;SHT31;53015;50.046;8.238;2023-12-04T08:40:38;-0.21;78.15
66213;SHT31;53015;50.046;8.238;2023-12-04T08:43:04;-0.33;78.20
66213;SHT31;53015;50.046;8.238;2023-12-04T08:45:29;-0.19;77.66
66213;SHT31;53015;50.046;8.238;2023-12-04T08:47:55;-0.06;77.76
66213;SHT31;53015;50.046;8.238;2023-12-04T08:50:20;-0.06;77.29
66213;SHT31;53015;50.046;8.238;2023-12-04T08:52:46;-0.07;77.10
66213;SHT31;53015;50.046;8.238;2023-12-04T08:55:11;-0.20;76.77
66213;SHT31;53015;50.046;8.238;2023-12-04T08:57:38;-0.14;76.82
66213;SHT31;53015;50.046;8.238;2023-12-04T09:00:05;0.09;76.52
66213;SHT31;53015;50.046;8.238;2023-12-04T09:02:30;-0.06;76.37
66213;SHT31;53015;50.046;8.238;2023-12-04T09:04:56;-0.02;77.15
66213;SHT31;53015;50.046;8.238;2023-12-04T09:07:21;0.29;76.61
66213;SHT31;53015;50.046;8.238;2023-12-04T09:09:47;0.21;76.25
66213;SHT31;53015;50.046;8.238;2023-12-04T09:12:12;0.48;76.56
66213;SHT31;53015;50.046;8.238;2023-12-04T09:14:39;0.26;75.58
66213;SHT31;53015;50.046;8.238;2023-12-04T09:17:05;0.38;75.57
66213;SHT31;53015;50.046;8.238;2023-12-04T09:19:30;0.50;75.99
66213;SHT31;53015;50.046;8.238;2023-12-04T09:21:56;0.18;76.26
66213;SHT31;53015;50.046;8.238;2023-12-04T09:24:21;0.15;76.48
66213;SHT31;53015;50.046;8.238;2023-12-04T09:26:47;0.04;76.74
66213;SHT31;53015;50.046;8.238;2023-12-04T09:29:12;-0.02;77.06
66213;SHT31;53015;50.046;8.238;2023-12-04T09:31:39;0.12;76.90
66213;SHT31;53015;50.046;8.238;2023-12-04T09:34:05;0.19;76.51
66213;SHT31;53015;50.046;8.238;2023-12-04T09:36:30;0.14;76.37
66213;SHT31;53015;50.046;8.238;2023-12-04T09:38:56;0.02;76.33
66213;SHT31;53015;50.046;8.238;2023-12-04T09:41:21;-0.01;76.69
66213;SHT31;53015;50.046;8.238;2023-12-04T09:43:47;-0.07;76.89
66213;SHT31;53015;50.046;8.238;2023-12-04T09:46:13;-0.10;76.57
66213;SHT31;53015;50.046;8.238;2023-12-04T09:48:43;-0.09;76.96
66213;SHT31;53015;50.046;8.238;2023-12-04T09:51:08;0.04;76.95
66213;SHT31;53015;50.046;8.238;2023-12-04T09:53:35;0.07;76.75
66213;SHT31;53015;50.046;8.238;2023-12-04T09:56:03;-0.05;76.76
66213;SHT31;53015;50.046;8.238;2023-12-04T09:58:28;0.04;76.96
66213;SHT31;53015;50.046;8.238;2023-12-04T10:00:54;0.21;76.88
66213;SHT31;53015;50.046;8.238;2023-12-04T10:03:20;0.07;76.24
66213;SHT31;53015;50.046;8.238;2023-12-04T10:05:47;0.21;76.31
66213;SHT31;53015;50.046;8.238;2023-12-04T10:08:14;0.12;76.64
66213;SHT31;53015;50.046;8.238;2023-12-04T10:10:39;0.25;76.87
66213;SHT31;53015;50.046;8.238;2023-12-04T10:13:05;0.28;75.74
66213;SHT31;53015;50.046;8.238;2023-12-04T10:15:30;0.25;76.37
66213;SHT31;53015;50.046;8.238;2023-12-04T10:17:56;0.45;76.44
66213;SHT31;53015;50.046;8.238;2023-12-04T10:20:21;0.52;75.84
66213;SHT31;53015;50.046;8.238;2023-12-04T10:22:55;0.53;75.55
66213;SHT31;53015;50.046;8.238;2023-12-04T10:25:22;0.69;75.80
66213;SHT31;53015;50.046;8.238;2023-12-04T10:27:48;0.57;75.04
66213;SHT31;53015;50.046;8.238;2023-12-04T10:30:24;0.80;74.85
66213;SHT31;53015;50.046;8.238;2023-12-04T10:32:54;0.94;75.28
66213;SHT31;53015;50.046;8.238;2023-12-04T10:35:19;1.04;74.78
66213;SHT31;53015;50.046;8.238;2023-12-04T10:37:45;0.98;74.27
66213;SHT31;53015;50.046;8.238;2023-12-04T10:40:22;0.94;74.46
66213;SHT31;53015;50.046;8.238;2023-12-04T10:42:49;1.21;74.43
66213;SHT31;53015;50.046;8.238;2023-12-04T10:45:14;1.19;73.90
66213;SHT31;53015;50.046;8.238;2023-12-04T10:47:40;1.29;73.88
66213;SHT31;53015;50.046;8.238;2023-12-04T10:50:06;1.15;74.16
66213;SHT31;53015;50.046;8.238;2023-12-04T10:52:31;1.04;74.96
66213;SHT31;53015;50.046;8.238;2023-12-04T10:54:57;0.98;75.44
66213;SHT31;53015;50.046;8.238;2023-12-04T10:57:27;1.05;75.11
66213;SHT31;53015;50.046;8.238;2023-12-04T10:59:57;1.04;75.12
66213;SHT31;53015;50.046;8.238;2023-12-04T11:02:25;0.84;75.03
66213;SHT31;53015;50.046;8.238;2023-12-04T11:04:54;0.73;75.61
66213;SHT31;53015;50.046;8.238;2023-12-04T11:07:21;0.73;75.78
66213;SHT31;53015;50.046;8.238;2023-12-04T11:09:49;0.63;77.97
66213;SHT31;53015;50.046;8.238;2023-12-04T11:12:18;0.28;79.40
66213;SHT31;53015;50.046;8.238;2023-12-04T11:14:51;0.24;80.60
66213;SHT31;53015;50.046;8.238;2023-12-04T11:17:19;0.21;82.30
66213;SHT31;53015;50.046;8.238;2023-12-04T11:19:52;-0.03;83.38
66213;SHT31;53015;50.046;8.238;2023-12-04T11:22:18;0.18;84.02
66213;SHT31;53015;50.046;8.238;2023-12-04T11:24:44;-0.02;84.46
66213;SHT31;53015;50.046;8.238;2023-12-04T11:27:10;-0.21;85.92
66213;SHT31;53015;50.046;8.238;2023-12-04T11:29:36;-0.06;86.00
66213;SHT31;53015;50.046;8.238;2023-12-04T11:32:06;-0.03;86.15
66213;SHT31;53015;50.046;8.238;2023-12-04T11:34:32;-0.30;87.09
66213;SHT31;53015;50.046;8.238;2023-12-04T11:36:57;-0.14;87.48
66213;SHT31;53015;50.046;8.238;2023-12-04T11:39:25;-0.19;87.63
66213;SHT31;53015;50.046;8.238;2023-12-04T11:41:51;-0.03;87.53
66213;SHT31;53015;50.046;8.238;2023-12-04T11:44:17;-0.07;87.57
66213;SHT31;53015;50.046;8.238;2023-12-04T11:46:55;-0.27;87.99
66213;SHT31;53015;50.046;8.238;2023-12-04T11:49:28;-0.17;88.22
66213;SHT31;53015;50.046;8.238;2023-12-04T11:51:55;-0.29;89.38
66213;SHT31;53015;50.046;8.238;2023-12-04T11:54:22;-0.42;89.19
66213;SHT31;53015;50.046;8.238;2023-12-04T11:59:43;-0.51;89.89
66213;SHT31;53015;50.046;8.238;2023-12-04T12:02:10;-0.60;90.02
66213;SHT31;53015;50.046;8.238;2023-12-04T12:04:38;-0.56;89.82
66213;SHT31;53015;50.046;8.238;2023-12-04T12:07:05;-0.38;89.99
66213;SHT31;53015;50.046;8.238;2023-12-04T12:09:31;-0.36;89.87
66213;SHT31;53015;50.046;8.238;2023-12-04T12:11:59;-0.45;90.05
66213;SHT31;53015;50.046;8.238;2023-12-04T12:14:24;-0.53;89.87
66213;SHT31;53015;50.046;8.238;2023-12-04T12:16:50;-0.41;89.88
66213;SHT31;53015;50.046;8.238;2023-12-04T12:19:15;-0.53;90.10
66213;SHT31;53015;50.046;8.238;2023-12-04T12:21:42;-0.57;90.82
66213;SHT31;53015;50.046;8.238;2023-12-04T12:24:11;-0.30;90.33
66213;SHT31;53015;50.046;8.238;2023-12-04T12:26:37;-0.29;90.56
66213;SHT31;53015;50.046;8.238;2023-12-04T12:29:02;-0.31;89.55
66213;SHT31;53015;50.046;8.238;2023-12-04T12:31:28;-0.23;90.04
66213;SHT31;53015;50.046;8.238;2023-12-04T12:33:55;-0.45;89.85
66213;SHT31;53015;50.046;8.238;2023-12-04T12:36:21;-0.45;89.89
66213;SHT31;53015;50.046;8.238;2023-12-04T12:38:48;-0.42;90.19
66213;SHT31;53015;50.046;8.238;2023-12-04T12:41:13;-0.21;90.78
66213;SHT31;53015;50.046;8.238;2023-12-04T12:43:39;-0.19;89.42
66213;SHT31;53015;50.046;8.238;2023-12-04T12:46:05;-0.23;90.33
66213;SHT31;53015;50.046;8.238;2023-12-04T12:48:30;-0.41;90.01
66213;SHT31;53015;50.046;8.238;2023-12-04T12:50:57;-0.19;89.97
66213;SHT31;53015;50.046;8.238;2023-12-04T12:53:23;-0.05;89.87
66213;SHT31;53015;50.046;8.238;2023-12-04T12:55:50;-0.17;90.51
66213;SHT31;53015;50.046;8.238;2023-12-04T12:58:17;-0.31;89.64
66213;SHT31;53015;50.046;8.238;2023-12-04T13:00:43;-0.47;90.20
66213;SHT31;53015;50.046;8.238;2023-12-04T13:03:14;-0.41;91.72
66213;SHT31;53015;50.046;8.238;2023-12-04T13:05:39;-0.42;91.74
66213;SHT31;53015;50.046;8.238;2023-12-04T13:08:05;-0.23;91.04
66213;SHT31;53015;50.046;8.238;2023-12-04T13:10:30;-0.27;90.80
66213;SHT31;53015;50.046;8.238;2023-12-04T13:12:57;-0.30;91.28
66213;SHT31;53015;50.046;8.238;2023-12-04T13:15:22;-0.44;91.06
66213;SHT31;53015;50.046;8.238;2023-12-04T13:17:48;-0.36;91.14
66213;SHT31;53015;50.046;8.238;2023-12-04T13:20:14;-0.36;91.44
66213;SHT31;53015;50.046;8.238;2023-12-04T13:22:39;-0.45;91.19
66213;SHT31;53015;50.046;8.238;2023-12-04T13:25:06;-0.36;91.64
66213;SHT31;53015;50.046;8.238;2023-12-04T13:27:31;-0.40;91.06
66213;SHT31;53015;50.046;8.238;2023-12-04T13:29:58;-0.27;91.28
66213;SHT31;53015;50.046;8.238;2023-12-04T13:32:23;-0.33;91.40
66213;SHT31;53015;50.046;8.238;2023-12-04T13:34:49;-0.21;90.96
66213;SHT31;53015;50.046;8.238;2023-12-04T13:37:15;-0.16;91.10
66213;SHT31;53015;50.046;8.238;2023-12-04T13:39:40;-0.07;90.92
66213;SHT31;53015;50.046;8.238;2023-12-04T13:42:05;-0.17;90.48
66213;SHT31;53015;50.046;8.238;2023-12-04T13:44:31;-0.09;91.10
66213;SHT31;53015;50.046;8.238;2023-12-04T13:46:58;0.04;90.32
66213;SHT31;53015;50.046;8.238;2023-12-04T13:49:23;-0.05;90.66
66213;SHT31;53015;50.046;8.238;2023-12-04T13:51:49;0.18;90.44
66213;SHT31;53015;50.046;8.238;2023-12-04T13:54:14;0.33;89.66
66213;SHT31;53015;50.046;8.238;2023-12-04T13:56:40;0.22;89.75
66213;SHT31;53015;50.046;8.238;2023-12-04T13:59:05;-0.03;89.96
66213;SHT31;53015;50.046;8.238;2023-12-04T14:01:31;-0.23;91.23
66213;SHT31;53015;50.046;8.238;2023-12-04T14:03:57;-0.30;91.98
66213;SHT31;53015;50.046;8.238;2023-12-04T14:06:23;-0.23;91.35
66213;SHT31;53015;50.046;8.238;2023-12-04T14:08:48;-0.17;91.83
66213;SHT31;53015;50.046;8.238;2023-12-04T14:11:14;-0.31;91.92
66213;SHT31;53015;50.046;8.238;2023-12-04T14:13:39;-0.24;92.01
66213;SHT31;53015;50.046;8.238;2023-12-04T14:16:06;-0.34;91.70
66213;SHT31;53015;50.046;8.238;2023-12-04T14:18:32;-0.31;91.74
66213;SHT31;53015;50.046;8.238;2023-12-04T14:20:58;-0.23;91.84
66213;SHT31;53015;50.046;8.238;2023-12-04T14:23:24;-0.24;92.05
66213;SHT31;53015;50.046;8.238;2023-12-04T14:25:50;-0.06;91.84
66213;SHT31;53015;50.046;8.238;2023-12-04T14:28:15;-0.03;91.90
66213;SHT31;53015;50.046;8.238;2023-12-04T14:30:41;0.01;91.69
66213;SHT31;53015;50.046;8.238;2023-12-04T14:33:06;0.25;91.29
66213;SHT31;53015;50.046;8.238;2023-12-04T14:35:32;0.25;91.05
66213;SHT31;53015;50.046;8.238;2023-12-04T14:37:59;0.09;90.88
66213;SHT31;53015;50.046;8.238;2023-12-04T14:40:24;-0.13;92.06
66213;SHT31;53015;50.046;8.238;2023-12-04T14:42:50;-0.06;91.99
66213;SHT31;53015;50.046;8.238;2023-12-04T14:45:15;0.08;92.26
66213;SHT31;53015;50.046;8.238;2023-12-04T14:47:41;-0.19;91.91
66213;SHT31;53015;50.046;8.238;2023-12-04T14:50:07;-0.16;93.03
66213;SHT31;53015;50.046;8.238;2023-12-04T14:52:32;-0.03;92.47
66213;SHT31;53015;50.046;8.238;2023-12-04T14:55:00;0.12;92.35
66213;SHT31;53015;50.046;8.238;2023-12-04T14:57:25;-0.01;92.45
66213;SHT31;53015;50.046;8.238;2023-12-04T14:59:51;0.07;91.98
66213;SHT31;53015;50.046;8.238;2023-12-04T15:02:17;0.11;91.90
66213;SHT31;53015;50.046;8.238;2023-12-04T15:04:42;0.18;91.74
66213;SHT31;53015;50.046;8.238;2023-12-04T15:07:08;-0.03;92.17
66213;SHT31;53015;50.046;8.238;2023-12-04T15:09:33;0.14;91.46
66213;SHT31;53015;50.046;8.238;2023-12-04T15:12:00;0.12;91.74
66213;SHT31;53015;50.046;8.238;2023-12-04T15:14:25;0.26;91.81
66213;SHT31;53015;50.046;8.238;2023-12-04T15:16:51;0.22;92.16
66213;SHT31;53015;50.046;8.238;2023-12-04T15:19:16;0.11;91.54
66213;SHT31;53015;50.046;8.238;2023-12-04T15:21:42;0.14;92.13
66213;SHT31;53015;50.046;8.238;2023-12-04T15:24:07;-0.06;92.17
66213;SHT31;53015;50.046;8.238;2023-12-04T15:26:33;-0.07;92.83